sensor_id;sensor_type;location;lat;lon;timestamp;P1;durP1;ratioP1;P2;durP2;ratioP2
13685;SDS011;6915;48.296;8.874;2024-02-23T00:01:54;0.00;;;0.00;;
13685;SDS011;6915;48.296;8.874;2024-02-23T00:04:22;0.10;;;0.10;;
13685;SDS011;6915;48.296;8.874;2024-02-23T00:06:49;1.03;;;0.10;;
13685;SDS011;6915;48.296;8.874;2024-02-23T00:09:16;0.77;;;0.10;;
13685;SDS011;6915;48.296;8.874;2024-02-23T00:11:43;0.57;;;0.27;;
13685;SDS011;6915;48.296;8.874;2024-02-23T00:14:10;0.50;;;0.20;;
13685;SDS011;6915;48.296;8.874;2024-02-23T00:16:38;0.17;;;0.10;;
13685;SDS011;6915;48.296;8.874;2024-02-23T00:19:07;0.53;;;0.20;;
13685;SDS011;6915;48.296;8.874;2024-02-23T00:21:35;0.33;;;0.20;;
13685;SDS011;6915;48.296;8.874;2024-02-23T00:24:02;0.53;;;0.13;;
13685;SDS011;6915;48.296;8.874;2024-02-23T00:26:30;0.10;;;0.10;;
13685;SDS011;6915;48.296;8.874;2024-02-23T00:28:57;1.80;;;0.10;;
13685;SDS011;6915;48.296;8.874;2024-02-23T00:31:24;0.80;;;0.10;;
13685;SDS011;6915;48.296;8.874;2024-02-23T00:33:51;0.23;;;0.10;;
13685;SDS011;6915;48.296;8.874;2024-02-23T00:36:17;0.40;;;0.10;;
13685;SDS011;6915;48.296;8.874;2024-02-23T00:38:46;0.30;;;0.03;;
13685;SDS011;6915;48.296;8.874;2024-02-23T00:41:13;0.17;;;0.17;;
13685;SDS011;6915;48.296;8.874;2024-02-23T00:43:40;0.57;;;0.10;;
13685;SDS011;6915;48.296;8.874;2024-02-23T00:46:07;0.40;;;0.10;;
13685;SDS011;6915;48.296;8.874;2024-02-23T00:48:34;0.30;;;0.10;;
13685;SDS011;6915;48.296;8.874;2024-02-23T00:51:01;0.00;;;0.00;;
13685;SDS011;6915;48.296;8.874;2024-02-23T00:53:30;0.10;;;0.10;;
13685;SDS011;6915;48.296;8.874;2024-02-23T00:55:58;0.20;;;0.00;;
13685;SDS011;6915;48.296;8.874;2024-02-23T00:58:25;0.10;;;0.00;;
13685;SDS011;6915;48.296;8.874;2024-02-23T01:00:52;0.20;;;0.03;;
13685;SDS011;6915;48.296;8.874;2024-02-23T01:03:19;0.00;;;0.00;;
13685;SDS011;6915;48.296;8.874;2024-02-23T01:05:46;0.57;;;0.10;;
13685;SDS011;6915;48.296;8.874;2024-02-23T01:08:13;1.13;;;0.07;;
13685;SDS011;6915;48.296;8.874;2024-02-23T01:10:40;0.97;;;0.10;;
13685;SDS011;6915;48.296;8.874;2024-02-23T01:13:08;0.33;;;0.10;;
13685;SDS011;6915;48.296;8.874;2024-02-23T01:15:35;0.20;;;0.00;;
13685;SDS011;6915;48.296;8.874;2024-02-23T01:18:03;2.20;;;0.10;;
13685;SDS011;6915;48.296;8.874;2024-02-23T01:20:31;0.47;;;0.00;;
13685;SDS011;6915;48.296;8.874;2024-02-23T01:22:57;0.37;;;0.07;;
13685;SDS011;6915;48.296;8.874;2024-02-23T01:25:24;0.93;;;0.03;;
13685;SDS011;6915;48.296;8.874;2024-02-23T01:27:51;0.40;;;0.00;;
13685;SDS011;6915;48.296;8.874;2024-02-23T01:30:20;0.00;;;0.00;;
13685;SDS011;6915;48.296;8.874;2024-02-23T01:32:46;0.10;;;0.10;;
13685;SDS011;6915;48.296;8.874;2024-02-23T01:35:15;0.07;;;0.07;;
13685;SDS011;6915;48.296;8.874;2024-02-23T01:37:42;0.73;;;0.07;;
13685;SDS011;6915;48.296;8.874;2024-02-23T01:40:10;0.10;;;0.00;;
13685;SDS011;6915;48.296;8.874;2024-02-23T01:42:37;0.43;;;0.10;;
13685;SDS011;6915;48.296;8.874;2024-02-23T01:45:05;0.20;;;0.13;;
13685;SDS011;6915;48.296;8.874;2024-02-23T01:47:34;0.40;;;0.10;;
13685;SDS011;6915;48.296;8.874;2024-02-23T01:50:01;0.17;;;0.10;;
13685;SDS011;6915;48.296;8.874;2024-02-23T01:52:28;0.10;;;0.03;;
13685;SDS011;6915;48.296;8.874;2024-02-23T01:54:55;0.40;;;0.00;;
13685;SDS011;6915;48.296;8.874;2024-02-23T01:57:22;0.87;;;0.40;;
13685;SDS011;6915;48.296;8.874;2024-02-23T01:59:50;0.17;;;0.10;;
13685;SDS011;6915;48.296;8.874;2024-02-23T02:02:17;0.50;;;0.10;;
13685;SDS011;6915;48.296;8.874;2024-02-23T02:04:46;0.60;;;0.20;;
13685;SDS011;6915;48.296;8.874;2024-02-23T02:07:13;0.23;;;0.20;;
13685;SDS011;6915;48.296;8.874;2024-02-23T02:09:40;0.00;;;0.00;;
13685;SDS011;6915;48.296;8.874;2024-02-23T02:12:07;0.60;;;0.30;;
13685;SDS011;6915;48.296;8.874;2024-02-23T02:14:34;0.77;;;0.10;;
13685;SDS011;6915;48.296;8.874;2024-02-23T02:17:01;1.33;;;0.23;;
13685;SDS011;6915;48.296;8.874;2024-02-23T02:19:28;0.83;;;0.20;;
13685;SDS011;6915;48.296;8.874;2024-02-23T02:21:56;1.23;;;0.20;;
13685;SDS011;6915;48.296;8.874;2024-02-23T02:24:23;1.87;;;0.20;;
13685;SDS011;6915;48.296;8.874;2024-02-23T02:26:50;0.67;;;0.20;;
13685;SDS011;6915;48.296;8.874;2024-02-23T02:29:17;1.23;;;0.20;;
13685;SDS011;6915;48.296;8.874;2024-02-23T02:31:44;0.73;;;0.17;;
13685;SDS011;6915;48.296;8.874;2024-02-23T02:34:11;0.17;;;0.03;;
13685;SDS011;6915;48.296;8.874;2024-02-23T02:36:39;1.03;;;0.20;;
13685;SDS011;6915;48.296;8.874;2024-02-23T02:39:08;1.70;;;0.40;;
13685;SDS011;6915;48.296;8.874;2024-02-23T02:41:35;0.83;;;0.10;;
13685;SDS011;6915;48.296;8.874;2024-02-23T02:44:02;0.47;;;0.20;;
13685;SDS011;6915;48.296;8.874;2024-02-23T02:46:29;0.50;;;0.10;;
13685;SDS011;6915;48.296;8.874;2024-02-23T04:51:47;0.80;;;0.30;;
13685;SDS011;6915;48.296;8.874;2024-02-23T04:54:14;1.53;;;0.50;;
13685;SDS011;6915;48.296;8.874;2024-02-23T04:56:41;1.33;;;0.40;;
13685;SDS011;6915;48.296;8.874;2024-02-23T04:59:08;2.53;;;0.50;;
13685;SDS011;6915;48.296;8.874;2024-02-23T05:01:35;2.07;;;0.30;;
13685;SDS011;6915;48.296;8.874;2024-02-23T05:04:03;2.57;;;0.23;;
13685;SDS011;6915;48.296;8.874;2024-02-23T05:06:30;0.50;;;0.30;;
13685;SDS011;6915;48.296;8.874;2024-02-23T05:08:58;0.87;;;0.30;;
13685;SDS011;6915;48.296;8.874;2024-02-23T05:11:26;1.73;;;0.40;;
13685;SDS011;6915;48.296;8.874;2024-02-23T05:13:53;1.77;;;0.40;;
13685;SDS011;6915;48.296;8.874;2024-02-23T05:16:20;0.80;;;0.37;;
13685;SDS011;6915;48.296;8.874;2024-02-23T05:18:47;3.63;;;1.67;;
13685;SDS011;6915;48.296;8.874;2024-02-23T05:21:14;14.43;;;6.00;;
13685;SDS011;6915;48.296;8.874;2024-02-23T05:23:41;3.60;;;1.70;;
13685;SDS011;6915;48.296;8.874;2024-02-23T05:26:09;2.33;;;0.73;;
13685;SDS011;6915;48.296;8.874;2024-02-23T05:28:36;2.53;;;1.00;;
13685;SDS011;6915;48.296;8.874;2024-02-23T05:31:04;2.13;;;1.00;;
13685;SDS011;6915;48.296;8.874;2024-02-23T05:33:30;2.23;;;1.00;;
13685;SDS011;6915;48.296;8.874;2024-02-23T05:35:57;3.57;;;0.70;;
13685;SDS011;6915;48.296;8.874;2024-02-23T05:38:24;1.93;;;0.50;;
13685;SDS011;6915;48.296;8.874;2024-02-23T05:40:51;1.73;;;0.63;;
13685;SDS011;6915;48.296;8.874;2024-02-23T05:43:19;2.20;;;0.60;;
13685;SDS011;6915;48.296;8.874;2024-02-23T05:45:46;1.00;;;0.40;;
13685;SDS011;6915;48.296;8.874;2024-02-23T05:48:14;1.20;;;0.50;;
13685;SDS011;6915;48.296;8.874;2024-02-23T05:50:41;1.30;;;0.80;;
13685;SDS011;6915;48.296;8.874;2024-02-23T05:53:08;1.83;;;0.70;;
13685;SDS011;6915;48.296;8.874;2024-02-23T05:55:35;1.00;;;0.70;;
13685;SDS011;6915;48.296;8.874;2024-02-23T05:58:02;1.13;;;0.50;;
13685;SDS011;6915;48.296;8.874;2024-02-23T06:00:31;1.83;;;1.17;;
13685;SDS011;6915;48.296;8.874;2024-02-23T06:02:59;1.13;;;0.70;;
13685;SDS011;6915;48.296;8.874;2024-02-23T06:05:26;3.37;;;1.10;;
13685;SDS011;6915;48.296;8.874;2024-02-23T06:07:53;1.07;;;0.60;;
13685;SDS011;6915;48.296;8.874;2024-02-23T06:10:20;1.80;;;0.87;;
13685;SDS011;6915;48.296;8.874;2024-02-23T06:12:47;3.53;;;0.80;;
13685;SDS011;6915;48.296;8.874;2024-02-23T06:15:13;1.73;;;0.80;;
13685;SDS011;6915;48.296;8.874;2024-02-23T06:17:42;1.57;;;0.60;;
13685;SDS011;6915;48.296;8.874;2024-02-23T06:20:10;1.40;;;0.67;;
13685;SDS011;6915;48.296;8.874;2024-02-23T06:22:37;1.33;;;0.40;;
13685;SDS011;6915;48.296;8.874;2024-02-23T06:25:04;1.47;;;0.60;;
13685;SDS011;6915;48.296;8.874;2024-02-23T06:27:32;4.27;;;1.10;;
13685;SDS011;6915;48.296;8.874;2024-02-23T06:29:59;2.17;;;0.70;;
13685;SDS011;6915;48.296;8.874;2024-02-23T06:32:26;2.20;;;0.70;;
13685;SDS011;6915;48.296;8.874;2024-02-23T06:34:54;2.83;;;0.70;;
13685;SDS011;6915;48.296;8.874;2024-02-23T06:37:21;2.80;;;1.00;;
13685;SDS011;6915;48.296;8.874;2024-02-23T06:39:48;4.67;;;1.10;;
13685;SDS011;6915;48.296;8.874;2024-02-23T06:42:19;2.37;;;0.70;;
13685;SDS011;6915;48.296;8.874;2024-02-23T06:44:46;2.27;;;0.80;;
13685;SDS011;6915;48.296;8.874;2024-02-23T06:47:13;4.47;;;1.03;;
13685;SDS011;6915;48.296;8.874;2024-02-23T06:49:41;2.60;;;0.77;;
13685;SDS011;6915;48.296;8.874;2024-02-23T06:52:10;2.40;;;0.70;;
13685;SDS011;6915;48.296;8.874;2024-02-23T06:54:37;5.90;;;0.93;;
13685;SDS011;6915;48.296;8.874;2024-02-23T06:57:04;3.43;;;1.00;;
13685;SDS011;6915;48.296;8.874;2024-02-23T06:59:31;2.57;;;1.03;;
13685;SDS011;6915;48.296;8.874;2024-02-23T07:01:58;2.50;;;0.90;;
13685;SDS011;6915;48.296;8.874;2024-02-23T07:04:25;4.83;;;0.93;;
13685;SDS011;6915;48.296;8.874;2024-02-23T07:06:52;4.67;;;0.90;;
13685;SDS011;6915;48.296;8.874;2024-02-23T07:09:20;1.87;;;1.10;;
13685;SDS011;6915;48.296;8.874;2024-02-23T07:11:47;1.83;;;1.00;;
13685;SDS011;6915;48.296;8.874;2024-02-23T07:14:14;2.73;;;1.03;;
13685;SDS011;6915;48.296;8.874;2024-02-23T07:16:42;3.00;;;1.10;;
13685;SDS011;6915;48.296;8.874;2024-02-23T07:19:09;2.80;;;1.00;;
13685;SDS011;6915;48.296;8.874;2024-02-23T07:21:37;1.67;;;0.70;;
13685;SDS011;6915;48.296;8.874;2024-02-23T07:24:05;4.63;;;0.97;;
13685;SDS011;6915;48.296;8.874;2024-02-23T07:26:32;2.10;;;1.00;;
13685;SDS011;6915;48.296;8.874;2024-02-23T07:28:59;3.27;;;1.00;;
13685;SDS011;6915;48.296;8.874;2024-02-23T07:31:26;4.90;;;0.93;;
13685;SDS011;6915;48.296;8.874;2024-02-23T07:33:53;2.70;;;0.80;;
13685;SDS011;6915;48.296;8.874;2024-02-23T07:36:20;2.67;;;0.80;;
13685;SDS011;6915;48.296;8.874;2024-02-23T07:38:47;1.90;;;0.90;;
13685;SDS011;6915;48.296;8.874;2024-02-23T07:41:14;5.90;;;1.00;;
13685;SDS011;6915;48.296;8.874;2024-02-23T07:43:44;0.80;;;0.60;;
13685;SDS011;6915;48.296;8.874;2024-02-23T07:46:11;1.93;;;0.73;;
13685;SDS011;6915;48.296;8.874;2024-02-23T07:48:38;2.77;;;0.77;;
13685;SDS011;6915;48.296;8.874;2024-02-23T07:51:06;2.93;;;0.90;;
13685;SDS011;6915;48.296;8.874;2024-02-23T07:53:32;2.00;;;1.00;;
13685;SDS011;6915;48.296;8.874;2024-02-23T07:56:01;1.13;;;0.70;;
13685;SDS011;6915;48.296;8.874;2024-02-23T07:58:29;3.13;;;0.80;;
13685;SDS011;6915;48.296;8.874;2024-02-23T08:00:57;1.97;;;0.90;;
13685;SDS011;6915;48.296;8.874;2024-02-23T08:03:24;2.40;;;0.80;;
13685;SDS011;6915;48.296;8.874;2024-02-23T08:05:51;2.23;;;0.83;;
13685;SDS011;6915;48.296;8.874;2024-02-23T08:08:18;5.73;;;1.13;;
13685;SDS011;6915;48.296;8.874;2024-02-23T08:10:47;1.57;;;0.67;;
13685;SDS011;6915;48.296;8.874;2024-02-23T08:13:14;4.70;;;0.93;;
13685;SDS011;6915;48.296;8.874;2024-02-23T08:15:43;3.03;;;0.83;;
13685;SDS011;6915;48.296;8.874;2024-02-23T08:18:11;5.33;;;1.30;;
13685;SDS011;6915;48.296;8.874;2024-02-23T08:20:38;3.17;;;0.93;;
13685;SDS011;6915;48.296;8.874;2024-02-23T08:23:06;2.23;;;1.03;;
13685;SDS011;6915;48.296;8.874;2024-02-23T08:25:34;3.73;;;1.43;;
13685;SDS011;6915;48.296;8.874;2024-02-23T08:28:01;3.43;;;1.77;;
13685;SDS011;6915;48.296;8.874;2024-02-23T08:30:28;6.27;;;2.50;;
13685;SDS011;6915;48.296;8.874;2024-02-23T08:32:55;4.20;;;1.70;;
13685;SDS011;6915;48.296;8.874;2024-02-23T08:35:23;4.43;;;1.30;;
13685;SDS011;6915;48.296;8.874;2024-02-23T08:37:50;3.53;;;1.10;;
13685;SDS011;6915;48.296;8.874;2024-02-23T08:40:17;3.83;;;0.90;;
13685;SDS011;6915;48.296;8.874;2024-02-23T08:42:44;4.90;;;1.03;;
13685;SDS011;6915;48.296;8.874;2024-02-23T08:45:12;3.43;;;1.00;;
13685;SDS011;6915;48.296;8.874;2024-02-23T08:47:39;3.07;;;0.77;;
13685;SDS011;6915;48.296;8.874;2024-02-23T08:50:08;5.03;;;0.60;;
13685;SDS011;6915;48.296;8.874;2024-02-23T08:52:36;3.23;;;0.90;;
13685;SDS011;6915;48.296;8.874;2024-02-23T08:55:04;3.00;;;1.10;;
13685;SDS011;6915;48.296;8.874;2024-02-23T08:57:31;1.97;;;1.00;;
13685;SDS011;6915;48.296;8.874;2024-02-23T08:59:58;4.20;;;0.90;;
13685;SDS011;6915;48.296;8.874;2024-02-23T09:02:25;4.47;;;0.77;;
13685;SDS011;6915;48.296;8.874;2024-02-23T09:04:52;4.83;;;0.90;;
13685;SDS011;6915;48.296;8.874;2024-02-23T09:07:19;5.53;;;0.80;;
13685;SDS011;6915;48.296;8.874;2024-02-23T09:09:47;3.47;;;0.80;;
13685;SDS011;6915;48.296;8.874;2024-02-23T09:12:14;2.67;;;0.87;;
13685;SDS011;6915;48.296;8.874;2024-02-23T09:14:42;2.93;;;0.70;;
13685;SDS011;6915;48.296;8.874;2024-02-23T09:17:11;4.13;;;0.90;;
13685;SDS011;6915;48.296;8.874;2024-02-23T09:19:38;7.57;;;2.73;;
13685;SDS011;6915;48.296;8.874;2024-02-23T09:22:06;5.67;;;2.57;;
13685;SDS011;6915;48.296;8.874;2024-02-23T09:24:33;23.73;;;10.20;;
13685;SDS011;6915;48.296;8.874;2024-02-23T09:27:02;35.27;;;15.40;;
13685;SDS011;6915;48.296;8.874;2024-02-23T09:29:29;10.23;;;6.00;;
13685;SDS011;6915;48.296;8.874;2024-02-23T09:31:57;5.87;;;4.37;;
13685;SDS011;6915;48.296;8.874;2024-02-23T09:34:25;4.57;;;1.17;;
13685;SDS011;6915;48.296;8.874;2024-02-23T09:36:52;3.87;;;1.40;;
13685;SDS011;6915;48.296;8.874;2024-02-23T09:39:19;4.20;;;1.00;;
13685;SDS011;6915;48.296;8.874;2024-02-23T09:41:48;2.33;;;0.87;;
13685;SDS011;6915;48.296;8.874;2024-02-23T09:44:18;3.47;;;0.90;;
13685;SDS011;6915;48.296;8.874;2024-02-23T09:46:47;2.97;;;0.97;;
13685;SDS011;6915;48.296;8.874;2024-02-23T09:49:15;2.47;;;1.10;;
13685;SDS011;6915;48.296;8.874;2024-02-23T09:51:42;2.40;;;1.07;;
13685;SDS011;6915;48.296;8.874;2024-02-23T09:54:10;6.30;;;1.20;;
13685;SDS011;6915;48.296;8.874;2024-02-23T09:56:38;4.63;;;1.00;;
13685;SDS011;6915;48.296;8.874;2024-02-23T09:59:06;4.27;;;1.00;;
13685;SDS011;6915;48.296;8.874;2024-02-23T10:01:35;3.03;;;0.77;;
13685;SDS011;6915;48.296;8.874;2024-02-23T10:04:03;2.77;;;0.70;;
13685;SDS011;6915;48.296;8.874;2024-02-23T10:06:33;1.80;;;0.73;;
13685;SDS011;6915;48.296;8.874;2024-02-23T10:09:00;2.10;;;0.83;;
13685;SDS011;6915;48.296;8.874;2024-02-23T10:11:29;4.10;;;0.97;;
13685;SDS011;6915;48.296;8.874;2024-02-23T10:13:56;2.17;;;0.80;;
13685;SDS011;6915;48.296;8.874;2024-02-23T10:16:24;4.83;;;0.90;;
13685;SDS011;6915;48.296;8.874;2024-02-23T10:18:52;7.33;;;1.27;;
13685;SDS011;6915;48.296;8.874;2024-02-23T10:21:19;3.43;;;0.90;;
13685;SDS011;6915;48.296;8.874;2024-02-23T10:23:47;3.17;;;0.80;;
13685;SDS011;6915;48.296;8.874;2024-02-23T10:26:15;3.23;;;1.10;;
13685;SDS011;6915;48.296;8.874;2024-02-23T10:28:44;4.17;;;0.70;;
13685;SDS011;6915;48.296;8.874;2024-02-23T10:31:12;2.83;;;0.83;;
13685;SDS011;6915;48.296;8.874;2024-02-23T10:33:40;2.87;;;1.37;;
13685;SDS011;6915;48.296;8.874;2024-02-23T10:36:09;45.60;;;25.03;;
13685;SDS011;6915;48.296;8.874;2024-02-23T10:38:41;53.90;;;28.50;;
13685;SDS011;6915;48.296;8.874;2024-02-23T10:41:11;28.90;;;19.43;;
13685;SDS011;6915;48.296;8.874;2024-02-23T10:43:40;4.23;;;1.83;;
13685;SDS011;6915;48.296;8.874;2024-02-23T10:46:13;5.77;;;1.87;;
13685;SDS011;6915;48.296;8.874;2024-02-23T10:48:41;4.57;;;1.10;;
13685;SDS011;6915;48.296;8.874;2024-02-23T10:51:12;3.67;;;0.80;;
13685;SDS011;6915;48.296;8.874;2024-02-23T10:53:40;5.27;;;1.10;;
13685;SDS011;6915;48.296;8.874;2024-02-23T10:56:07;4.50;;;1.13;;
13685;SDS011;6915;48.296;8.874;2024-02-23T10:58:36;5.07;;;1.00;;
13685;SDS011;6915;48.296;8.874;2024-02-23T11:01:04;6.03;;;1.20;;
13685;SDS011;6915;48.296;8.874;2024-02-23T11:06:09;6.10;;;1.10;;
13685;SDS011;6915;48.296;8.874;2024-02-23T11:08:37;3.57;;;0.93;;
13685;SDS011;6915;48.296;8.874;2024-02-23T11:11:07;2.53;;;1.03;;
13685;SDS011;6915;48.296;8.874;2024-02-23T11:13:35;4.67;;;1.00;;
13685;SDS011;6915;48.296;8.874;2024-02-23T11:16:03;3.30;;;1.10;;
13685;SDS011;6915;48.296;8.874;2024-02-23T11:18:30;7.07;;;1.17;;
13685;SDS011;6915;48.296;8.874;2024-02-23T11:21:00;3.97;;;0.97;;
13685;SDS011;6915;48.296;8.874;2024-02-23T11:23:39;5.33;;;1.20;;
13685;SDS011;6915;48.296;8.874;2024-02-23T11:26:09;9.90;;;1.47;;
13685;SDS011;6915;48.296;8.874;2024-02-23T11:28:43;5.20;;;0.87;;
13685;SDS011;6915;48.296;8.874;2024-02-23T11:31:13;5.20;;;1.20;;
13685;SDS011;6915;48.296;8.874;2024-02-23T11:33:51;7.20;;;1.10;;
13685;SDS011;6915;48.296;8.874;2024-02-23T11:36:22;6.40;;;1.20;;
13685;SDS011;6915;48.296;8.874;2024-02-23T11:38:53;4.00;;;1.13;;
13685;SDS011;6915;48.296;8.874;2024-02-23T11:41:22;5.70;;;1.17;;
13685;SDS011;6915;48.296;8.874;2024-02-23T11:43:50;3.50;;;1.20;;
13685;SDS011;6915;48.296;8.874;2024-02-23T11:46:17;3.00;;;0.80;;
13685;SDS011;6915;48.296;8.874;2024-02-23T11:48:44;7.37;;;1.10;;
13685;SDS011;6915;48.296;8.874;2024-02-23T11:51:12;4.33;;;1.07;;
13685;SDS011;6915;48.296;8.874;2024-02-23T11:53:39;4.87;;;1.30;;
13685;SDS011;6915;48.296;8.874;2024-02-23T11:56:08;3.67;;;1.27;;
13685;SDS011;6915;48.296;8.874;2024-02-23T11:58:36;7.13;;;1.30;;
13685;SDS011;6915;48.296;8.874;2024-02-23T12:01:03;4.70;;;1.13;;
13685;SDS011;6915;48.296;8.874;2024-02-23T12:03:32;7.27;;;1.03;;
13685;SDS011;6915;48.296;8.874;2024-02-23T12:05:59;7.47;;;1.13;;
13685;SDS011;6915;48.296;8.874;2024-02-23T12:08:27;3.50;;;0.90;;
13685;SDS011;6915;48.296;8.874;2024-02-23T12:10:56;3.07;;;1.00;;
13685;SDS011;6915;48.296;8.874;2024-02-23T12:13:26;6.80;;;1.10;;
13685;SDS011;6915;48.296;8.874;2024-02-23T12:15:53;3.27;;;0.90;;
13685;SDS011;6915;48.296;8.874;2024-02-23T12:18:21;7.10;;;1.87;;
13685;SDS011;6915;48.296;8.874;2024-02-23T12:20:51;4.23;;;1.20;;
13685;SDS011;6915;48.296;8.874;2024-02-23T12:23:18;4.50;;;1.27;;
13685;SDS011;6915;48.296;8.874;2024-02-23T12:25:52;7.50;;;1.03;;
13685;SDS011;6915;48.296;8.874;2024-02-23T12:28:19;4.30;;;1.10;;
13685;SDS011;6915;48.296;8.874;2024-02-23T12:30:48;4.93;;;1.30;;
13685;SDS011;6915;48.296;8.874;2024-02-23T12:33:26;8.37;;;1.10;;
13685;SDS011;6915;48.296;8.874;2024-02-23T12:35:54;4.97;;;1.30;;
13685;SDS011;6915;48.296;8.874;2024-02-23T12:38:22;5.60;;;1.60;;
13685;SDS011;6915;48.296;8.874;2024-02-23T12:40:49;5.87;;;1.40;;
13685;SDS011;6915;48.296;8.874;2024-02-23T12:43:16;2.63;;;1.03;;
13685;SDS011;6915;48.296;8.874;2024-02-23T12:45:47;3.93;;;1.23;;
13685;SDS011;6915;48.296;8.874;2024-02-23T12:48:15;4.93;;;1.00;;
13685;SDS011;6915;48.296;8.874;2024-02-23T12:50:42;6.20;;;1.37;;
13685;SDS011;6915;48.296;8.874;2024-02-23T12:53:09;4.80;;;1.57;;
13685;SDS011;6915;48.296;8.874;2024-02-23T12:55:55;4.23;;;1.20;;
13685;SDS011;6915;48.296;8.874;2024-02-23T12:58:22;2.80;;;0.90;;
13685;SDS011;6915;48.296;8.874;2024-02-23T13:00:51;3.27;;;1.20;;
13685;SDS011;6915;48.296;8.874;2024-02-23T13:03:18;5.53;;;2.50;;
13685;SDS011;6915;48.296;8.874;2024-02-23T13:05:45;6.93;;;3.43;;
13685;SDS011;6915;48.296;8.874;2024-02-23T13:08:12;5.20;;;1.87;;
13685;SDS011;6915;48.296;8.874;2024-02-23T13:10:39;5.17;;;1.27;;
13685;SDS011;6915;48.296;8.874;2024-02-23T13:13:06;6.40;;;1.23;;
13685;SDS011;6915;48.296;8.874;2024-02-23T13:15:33;4.77;;;1.20;;
13685;SDS011;6915;48.296;8.874;2024-02-23T13:18:03;4.97;;;1.30;;
13685;SDS011;6915;48.296;8.874;2024-02-23T13:20:30;6.43;;;1.17;;
13685;SDS011;6915;48.296;8.874;2024-02-23T13:22:57;5.97;;;0.93;;
13685;SDS011;6915;48.296;8.874;2024-02-23T13:25:24;3.13;;;0.83;;
13685;SDS011;6915;48.296;8.874;2024-02-23T13:27:51;4.13;;;1.00;;
13685;SDS011;6915;48.296;8.874;2024-02-23T13:30:18;4.93;;;0.97;;
13685;SDS011;6915;48.296;8.874;2024-02-23T13:32:45;3.40;;;1.10;;
13685;SDS011;6915;48.296;8.874;2024-02-23T13:35:13;2.87;;;1.10;;
13685;SDS011;6915;48.296;8.874;2024-02-23T13:37:42;4.20;;;0.80;;
13685;SDS011;6915;48.296;8.874;2024-02-23T13:40:09;3.90;;;1.00;;
13685;SDS011;6915;48.296;8.874;2024-02-23T13:42:36;4.47;;;1.13;;
13685;SDS011;6915;48.296;8.874;2024-02-23T13:45:05;5.87;;;1.40;;
13685;SDS011;6915;48.296;8.874;2024-02-23T13:47:33;3.20;;;0.97;;
13685;SDS011;6915;48.296;8.874;2024-02-23T13:50:01;5.73;;;3.33;;
13685;SDS011;6915;48.296;8.874;2024-02-23T13:52:31;4.03;;;1.50;;
13685;SDS011;6915;48.296;8.874;2024-02-23T13:54:59;4.07;;;0.90;;
13685;SDS011;6915;48.296;8.874;2024-02-23T13:57:26;3.57;;;1.30;;
13685;SDS011;6915;48.296;8.874;2024-02-23T13:59:53;6.90;;;1.27;;
13685;SDS011;6915;48.296;8.874;2024-02-23T14:02:24;6.73;;;1.40;;
13685;SDS011;6915;48.296;8.874;2024-02-23T14:04:54;3.87;;;1.23;;
13685;SDS011;6915;48.296;8.874;2024-02-23T14:07:27;5.30;;;1.17;;
13685;SDS011;6915;48.296;8.874;2024-02-23T14:09:55;7.43;;;1.53;;
13685;SDS011;6915;48.296;8.874;2024-02-23T14:12:22;4.30;;;0.93;;
13685;SDS011;6915;48.296;8.874;2024-02-23T14:14:49;4.57;;;1.30;;
13685;SDS011;6915;48.296;8.874;2024-02-23T14:17:16;3.40;;;1.07;;
13685;SDS011;6915;48.296;8.874;2024-02-23T14:19:43;4.73;;;0.90;;
13685;SDS011;6915;48.296;8.874;2024-02-23T14:22:10;5.43;;;1.03;;
13685;SDS011;6915;48.296;8.874;2024-02-23T14:24:37;4.80;;;1.00;;
13685;SDS011;6915;48.296;8.874;2024-02-23T14:27:07;2.13;;;1.00;;
13685;SDS011;6915;48.296;8.874;2024-02-23T14:29:33;2.47;;;0.90;;
13685;SDS011;6915;48.296;8.874;2024-02-23T14:32:00;4.60;;;1.00;;
13685;SDS011;6915;48.296;8.874;2024-02-23T14:34:27;4.57;;;1.10;;
13685;SDS011;6915;48.296;8.874;2024-02-23T14:36:55;3.47;;;1.20;;
13685;SDS011;6915;48.296;8.874;2024-02-23T14:39:22;4.73;;;1.17;;
13685;SDS011;6915;48.296;8.874;2024-02-23T14:41:49;4.20;;;0.80;;
13685;SDS011;6915;48.296;8.874;2024-02-23T14:44:17;3.27;;;1.10;;
13685;SDS011;6915;48.296;8.874;2024-02-23T14:46:44;7.63;;;1.20;;
13685;SDS011;6915;48.296;8.874;2024-02-23T14:49:11;3.03;;;1.40;;
13685;SDS011;6915;48.296;8.874;2024-02-23T14:51:38;3.50;;;0.97;;
13685;SDS011;6915;48.296;8.874;2024-02-23T14:54:07;1.63;;;0.63;;
13685;SDS011;6915;48.296;8.874;2024-02-23T14:56:34;2.87;;;0.80;;
13685;SDS011;6915;48.296;8.874;2024-02-23T14:59:02;2.37;;;0.70;;
13685;SDS011;6915;48.296;8.874;2024-02-23T15:01:30;3.97;;;1.20;;
13685;SDS011;6915;48.296;8.874;2024-02-23T15:03:57;2.40;;;0.80;;
13685;SDS011;6915;48.296;8.874;2024-02-23T15:06:24;3.63;;;1.00;;
13685;SDS011;6915;48.296;8.874;2024-02-23T15:08:52;4.43;;;0.93;;
13685;SDS011;6915;48.296;8.874;2024-02-23T15:11:19;2.03;;;1.00;;
13685;SDS011;6915;48.296;8.874;2024-02-23T15:13:46;2.70;;;0.90;;
13685;SDS011;6915;48.296;8.874;2024-02-23T15:16:13;2.70;;;0.90;;
13685;SDS011;6915;48.296;8.874;2024-02-23T15:18:42;3.87;;;1.10;;
13685;SDS011;6915;48.296;8.874;2024-02-23T15:21:09;2.33;;;1.23;;
13685;SDS011;6915;48.296;8.874;2024-02-23T15:23:37;8.13;;;3.10;;
13685;SDS011;6915;48.296;8.874;2024-02-23T15:26:05;3.60;;;1.10;;
13685;SDS011;6915;48.296;8.874;2024-02-23T15:28:32;2.20;;;1.03;;
13685;SDS011;6915;48.296;8.874;2024-02-23T15:30:59;3.37;;;1.00;;
13685;SDS011;6915;48.296;8.874;2024-02-23T15:33:28;2.57;;;0.90;;
13685;SDS011;6915;48.296;8.874;2024-02-23T15:35:56;4.13;;;1.13;;
13685;SDS011;6915;48.296;8.874;2024-02-23T15:38:23;5.03;;;1.70;;
13685;SDS011;6915;48.296;8.874;2024-02-23T15:40:51;7.83;;;2.57;;
13685;SDS011;6915;48.296;8.874;2024-02-23T15:43:18;3.43;;;1.67;;
13685;SDS011;6915;48.296;8.874;2024-02-23T15:45:47;3.77;;;1.10;;
13685;SDS011;6915;48.296;8.874;2024-02-23T15:48:14;3.20;;;1.13;;
13685;SDS011;6915;48.296;8.874;2024-02-23T15:50:44;1.33;;;1.20;;
13685;SDS011;6915;48.296;8.874;2024-02-23T15:53:12;2.00;;;1.00;;
13685;SDS011;6915;48.296;8.874;2024-02-23T15:55:39;3.10;;;1.10;;
13685;SDS011;6915;48.296;8.874;2024-02-23T15:58:07;2.93;;;0.90;;
13685;SDS011;6915;48.296;8.874;2024-02-23T16:00:34;3.23;;;1.10;;
13685;SDS011;6915;48.296;8.874;2024-02-23T16:03:01;4.07;;;1.00;;
13685;SDS011;6915;48.296;8.874;2024-02-23T16:05:28;4.03;;;1.23;;
13685;SDS011;6915;48.296;8.874;2024-02-23T16:07:56;3.27;;;1.00;;
13685;SDS011;6915;48.296;8.874;2024-02-23T16:10:30;6.23;;;1.10;;
13685;SDS011;6915;48.296;8.874;2024-02-23T16:12:57;5.90;;;1.30;;
13685;SDS011;6915;48.296;8.874;2024-02-23T16:15:25;7.87;;;1.30;;
13685;SDS011;6915;48.296;8.874;2024-02-23T16:17:52;2.63;;;0.90;;
13685;SDS011;6915;48.296;8.874;2024-02-23T16:20:19;3.83;;;1.10;;
13685;SDS011;6915;48.296;8.874;2024-02-23T16:22:46;3.80;;;1.27;;
13685;SDS011;6915;48.296;8.874;2024-02-23T16:25:13;3.67;;;1.30;;
13685;SDS011;6915;48.296;8.874;2024-02-23T16:27:42;3.70;;;0.80;;
13685;SDS011;6915;48.296;8.874;2024-02-23T16:30:11;3.50;;;1.20;;
13685;SDS011;6915;48.296;8.874;2024-02-23T16:32:38;3.50;;;0.90;;
13685;SDS011;6915;48.296;8.874;2024-02-23T16:35:05;3.00;;;0.97;;
13685;SDS011;6915;48.296;8.874;2024-02-23T16:37:35;1.93;;;0.80;;
13685;SDS011;6915;48.296;8.874;2024-02-23T17:40:59;2.97;;;0.83;;
13685;SDS011;6915;48.296;8.874;2024-02-23T17:43:26;4.93;;;1.00;;
13685;SDS011;6915;48.296;8.874;2024-02-23T17:45:53;3.70;;;1.50;;
13685;SDS011;6915;48.296;8.874;2024-02-23T17:48:20;1.77;;;0.90;;
13685;SDS011;6915;48.296;8.874;2024-02-23T17:50:47;5.03;;;2.97;;
13685;SDS011;6915;48.296;8.874;2024-02-23T17:53:14;5.30;;;2.80;;
13685;SDS011;6915;48.296;8.874;2024-02-23T17:55:41;3.30;;;1.67;;
13685;SDS011;6915;48.296;8.874;2024-02-23T17:58:09;5.23;;;1.73;;
13685;SDS011;6915;48.296;8.874;2024-02-23T18:00:36;2.40;;;1.00;;
13685;SDS011;6915;48.296;8.874;2024-02-23T18:03:03;5.60;;;1.00;;
13685;SDS011;6915;48.296;8.874;2024-02-23T18:05:30;3.43;;;1.23;;
13685;SDS011;6915;48.296;8.874;2024-02-23T18:07:57;4.80;;;1.20;;
13685;SDS011;6915;48.296;8.874;2024-02-23T18:10:24;4.13;;;0.90;;